createdAt,value
2022-12-17T00:04:18.979Z,9.80
2022-12-17T00:08:41.267Z,8.15
2022-12-17T00:13:02.074Z,8.70
2022-12-17T00:17:22.543Z,8.07
2022-12-17T00:21:45.561Z,8.40
2022-12-17T00:26:10.173Z,10.10
2022-12-17T00:30:31.337Z,8.43
2022-12-17T00:35:00.471Z,11.40
2022-12-17T00:39:21.117Z,9.43
2022-12-17T00:43:43.843Z,7.50
2022-12-17T00:48:06.429Z,10.60
2022-12-17T00:52:27.519Z,10.63
2022-12-17T00:56:48.392Z,9.93
2022-12-17T01:01:10.507Z,11.23
2022-12-17T01:05:31.872Z,11.70
2022-12-17T01:09:52.577Z,8.17
2022-12-17T01:14:13.399Z,10.40
2022-12-17T01:18:38.050Z,9.83
2022-12-17T01:22:58.597Z,7.10
2022-12-17T01:27:19.397Z,8.13
2022-12-17T01:31:40.010Z,11.77
2022-12-17T01:36:02.256Z,9.00
2022-12-17T01:40:23.382Z,6.93
2022-12-17T01:45:04.993Z,7.93
2022-12-17T01:49:27.843Z,6.10
2022-12-17T01:53:53.384Z,9.30
2022-12-17T01:58:14.087Z,9.30
2022-12-17T02:02:35.321Z,6.83
2022-12-17T02:07:01.361Z,7.83
2022-12-17T02:11:33.693Z,8.27
2022-12-17T02:15:59.646Z,7.17
2022-12-17T02:20:38.083Z,6.70
2022-12-17T02:25:08.326Z,8.07
2022-12-17T02:29:31.286Z,8.67
2022-12-17T02:33:52.647Z,4.87
2022-12-17T02:38:13.700Z,7.40
2022-12-17T02:42:36.135Z,7.20
2022-12-17T02:47:00.120Z,6.90
2022-12-17T02:51:21.238Z,7.20
2022-12-17T02:55:41.643Z,3.13
2022-12-17T03:00:02.461Z,4.97
2022-12-17T03:04:25.794Z,6.33
2022-12-17T03:08:46.746Z,8.83
2022-12-17T03:13:07.565Z,6.80
2022-12-17T03:17:28.070Z,6.33
2022-12-17T03:21:50.342Z,8.50
2022-12-17T03:26:11.976Z,7.47
2022-12-17T03:30:36.003Z,7.87
2022-12-17T03:35:09.127Z,8.33
2022-12-17T03:39:30.468Z,9.07
2022-12-17T03:43:51.287Z,8.57
2022-12-17T03:48:22.970Z,7.27
2022-12-17T03:52:43.965Z,8.27
2022-12-17T03:57:09.566Z,8.17
2022-12-17T04:01:33.881Z,7.80
2022-12-17T04:05:54.710Z,10.20
2022-12-17T04:10:26.780Z,5.83
2022-12-17T04:14:48.728Z,9.67
2022-12-17T04:19:09.511Z,9.67
2022-12-17T04:23:38.883Z,8.77
2022-12-17T04:27:59.935Z,9.77
2022-12-17T04:32:22.129Z,9.70
2022-12-17T04:36:42.874Z,9.10
2022-12-17T04:41:08.836Z,7.57
2022-12-17T04:45:29.404Z,6.33
2022-12-17T04:49:51.410Z,4.90
2022-12-17T04:54:11.814Z,6.67
2022-12-17T04:58:32.587Z,5.30
2022-12-17T05:02:53.427Z,3.77
2022-12-17T05:07:15.397Z,6.27
2022-12-17T05:11:36.099Z,3.63
2022-12-17T05:15:56.951Z,5.37
2022-12-17T05:20:17.772Z,2.63
2022-12-17T05:24:41.327Z,3.53
2022-12-17T05:29:02.122Z,3.80
2022-12-17T05:33:23.402Z,4.30
2022-12-17T05:37:44.582Z,4.03
2022-12-17T05:42:06.923Z,5.03
2022-12-17T05:46:27.610Z,3.67
2022-12-17T05:50:48.426Z,3.27
2022-12-17T05:55:09.263Z,3.47
2022-12-17T05:59:31.070Z,2.20
2022-12-17T06:03:51.817Z,4.17
2022-12-17T06:08:12.682Z,3.60
2022-12-17T06:12:33.498Z,5.87
2022-12-17T06:16:55.457Z,3.53
2022-12-17T06:21:15.979Z,4.40
2022-12-17T06:25:36.586Z,3.23
2022-12-17T06:29:57.420Z,4.50
2022-12-17T06:34:19.556Z,4.93
2022-12-17T06:38:40.394Z,3.40
2022-12-17T06:43:10.938Z,2.93
2022-12-17T06:47:31.886Z,5.67
2022-12-17T06:51:50.390Z,4.43
2022-12-17T06:56:11.708Z,4.07
2022-12-17T07:00:33.237Z,3.23
2022-12-17T07:04:54.099Z,5.97
2022-12-17T07:09:16.606Z,3.17
2022-12-17T07:13:37.697Z,3.97
2022-12-17T07:17:59.866Z,4.90
2022-12-17T07:22:20.592Z,4.67
2022-12-17T07:26:42.622Z,5.17
2022-12-17T07:31:03.811Z,5.70
2022-12-17T07:35:25.391Z,5.20
2022-12-17T07:39:46.204Z,5.23
2022-12-17T07:44:08.204Z,4.53
2022-12-17T07:48:37.363Z,3.87
2022-12-17T07:52:57.953Z,6.50
2022-12-17T07:57:19.008Z,4.30
2022-12-17T08:01:41.041Z,2.87
2022-12-17T08:06:02.385Z,4.37
2022-12-17T08:10:23.909Z,7.13
2022-12-17T08:14:44.727Z,5.90
2022-12-17T08:19:06.946Z,2.63
2022-12-17T08:23:26.921Z,3.70
2022-12-17T08:27:47.730Z,5.97
2022-12-17T08:32:09.231Z,4.60
2022-12-17T08:36:27.778Z,2.30
2022-12-17T08:40:48.581Z,2.83
2022-12-17T08:45:09.322Z,4.20
2022-12-17T08:49:30.122Z,4.40
2022-12-17T08:53:52.602Z,2.90
2022-12-17T08:58:13.640Z,3.23
2022-12-17T09:02:34.368Z,4.53
2022-12-17T09:06:55.166Z,5.47
2022-12-17T09:11:20.487Z,3.93
2022-12-17T09:15:41.152Z,3.07
2022-12-17T09:20:01.916Z,3.93
2022-12-17T09:24:23.271Z,2.25
2022-12-17T09:28:45.112Z,2.77
2022-12-17T09:33:05.998Z,1.37
2022-12-17T09:37:26.739Z,4.93
2022-12-17T09:41:55.739Z,4.10
2022-12-17T09:46:24.439Z,3.93
2022-12-17T09:50:45.330Z,3.83
2022-12-17T09:55:10.159Z,4.13
2022-12-17T09:59:38.326Z,4.27
2022-12-17T10:04:04.532Z,5.27
2022-12-17T10:08:31.375Z,3.67
2022-12-17T10:12:52.676Z,2.20
2022-12-17T10:17:13.334Z,2.00
2022-12-17T10:21:38.007Z,2.10
2022-12-17T10:26:08.830Z,3.47
2022-12-17T10:30:34.597Z,2.70
2022-12-17T10:35:07.982Z,17.27
2022-12-17T10:39:35.450Z,3.40
2022-12-17T10:43:59.038Z,2.90
2022-12-17T10:48:19.504Z,1.40
2022-12-17T10:52:45.767Z,2.57
2022-12-17T10:57:16.886Z,2.87
2022-12-17T11:01:41.342Z,3.70
2022-12-17T11:06:02.179Z,2.33
2022-12-17T11:10:28.771Z,2.57
2022-12-17T11:14:58.579Z,2.20
2022-12-17T11:19:34.746Z,2.53
2022-12-17T11:24:00.615Z,2.03
2022-12-17T11:28:30.110Z,2.50
2022-12-17T11:33:09.333Z,4.77
2022-12-17T11:37:36.634Z,2.07
2022-12-17T11:42:11.438Z,2.30
2022-12-17T11:46:44.226Z,2.73
2022-12-17T11:51:23.586Z,4.53
2022-12-17T11:55:53.011Z,2.70
2022-12-17T12:00:19.695Z,3.43
2022-12-17T12:04:55.654Z,3.83
2022-12-17T12:09:28.145Z,3.20
2022-12-17T12:13:59.288Z,3.13
2022-12-17T12:18:24.458Z,2.63
2022-12-17T12:22:51.673Z,2.00
2022-12-17T12:27:23.665Z,3.07
2022-12-17T12:31:53.354Z,5.03
2022-12-17T12:36:20.103Z,3.40
2022-12-17T12:40:50.396Z,4.50
2022-12-17T12:45:21.042Z,5.10
2022-12-17T12:49:47.839Z,5.43
2022-12-17T12:54:27.157Z,1.50
2022-12-17T12:58:50.560Z,3.37
2022-12-17T13:03:13.414Z,2.07
2022-12-17T13:07:28.061Z,3.13
2022-12-17T13:11:39.336Z,4.63
2022-12-17T13:15:47.660Z,4.37
2022-12-17T13:20:05.054Z,2.97
2022-12-17T13:24:12.507Z,4.03
2022-12-17T13:28:30.843Z,3.03
2022-12-17T13:32:43.844Z,3.73
2022-12-17T13:36:57.836Z,1.93
2022-12-17T13:41:10.443Z,3.10
2022-12-17T13:45:16.807Z,2.03
2022-12-17T13:49:22.194Z,2.77
2022-12-17T13:53:27.424Z,2.27
2022-12-17T13:57:31.763Z,3.90
2022-12-17T14:01:46.690Z,3.43
2022-12-17T14:05:50.752Z,2.57
2022-12-17T14:09:56.504Z,5.07
2022-12-17T14:14:02.299Z,3.87
2022-12-17T14:18:06.848Z,4.20
2022-12-17T14:22:13.766Z,3.80
2022-12-17T14:26:18.992Z,4.47
2022-12-17T14:30:26.030Z,5.57
2022-12-17T14:34:30.149Z,2.67
2022-12-17T14:38:38.719Z,3.87
2022-12-17T14:42:43.865Z,3.33
2022-12-17T14:46:47.584Z,3.43
2022-12-17T14:50:56.052Z,3.47
2022-12-17T14:54:59.285Z,4.17
2022-12-17T14:59:03.858Z,3.47
2022-12-17T15:03:07.325Z,4.47
2022-12-17T15:07:17.828Z,6.23
2022-12-17T15:11:23.230Z,5.20
2022-12-17T15:15:27.862Z,5.10
2022-12-17T15:19:31.536Z,4.07
2022-12-17T15:23:34.794Z,6.17
2022-12-17T15:27:38.000Z,3.47
2022-12-17T15:31:42.694Z,6.83
2022-12-17T15:35:45.982Z,4.07
2022-12-17T15:39:49.373Z,4.17
2022-12-17T15:43:52.611Z,5.03
2022-12-17T15:47:57.362Z,3.27
2022-12-17T15:52:00.531Z,2.83
2022-12-17T15:56:05.497Z,2.20
2022-12-17T16:00:09.987Z,1.93
2022-12-17T16:04:20.276Z,3.73
2022-12-17T16:08:27.917Z,2.47
2022-12-17T16:12:31.394Z,3.77
2022-12-17T16:16:34.639Z,2.73
2022-12-17T16:20:39.609Z,3.60
2022-12-17T16:24:43.082Z,3.93
2022-12-17T16:28:46.449Z,2.43
2022-12-17T16:32:49.722Z,3.40
2022-12-17T16:36:54.385Z,2.13
2022-12-17T16:40:58.319Z,4.13
2022-12-17T16:45:01.507Z,4.07
2022-12-17T16:49:07.869Z,4.37
2022-12-17T16:53:13.299Z,2.13
2022-12-17T16:57:16.452Z,3.57
2022-12-17T17:01:21.783Z,5.20
2022-12-17T17:05:25.204Z,3.47
2022-12-17T17:09:29.826Z,4.13
2022-12-17T17:13:33.079Z,2.67
2022-12-17T17:17:54.551Z,3.70
2022-12-17T17:21:59.412Z,4.90
2022-12-17T17:26:04.740Z,2.77
2022-12-17T17:30:09.088Z,3.83
2022-12-17T17:34:15.046Z,3.60
2022-12-17T17:38:18.240Z,3.07
2022-12-17T17:42:22.852Z,4.03
2022-12-17T17:46:27.219Z,3.07
2022-12-17T17:50:31.058Z,4.63
2022-12-17T17:54:35.125Z,3.67
2022-12-17T17:58:40.024Z,4.20
2022-12-17T18:02:43.637Z,3.50
2022-12-17T18:07:16.532Z,4.33
2022-12-17T18:11:17.829Z,4.57
2022-12-17T18:15:24.791Z,3.33
2022-12-17T18:19:28.271Z,4.43
2022-12-17T18:23:31.405Z,6.13
2022-12-17T18:27:34.525Z,4.97
2022-12-17T18:31:39.148Z,3.93
2022-12-17T18:35:42.454Z,5.20
2022-12-17T18:39:45.616Z,4.13
2022-12-17T18:43:50.621Z,4.40
2022-12-17T18:47:55.246Z,7.30
2022-12-17T18:51:58.557Z,4.53
2022-12-17T18:56:08.287Z,3.37
2022-12-17T19:00:12.730Z,4.73
2022-12-17T19:04:19.849Z,4.30
2022-12-17T19:08:23.037Z,5.80
2022-12-17T19:12:26.266Z,3.57
2022-12-17T19:16:30.698Z,2.07
2022-12-17T19:20:35.427Z,5.20
2022-12-17T19:24:38.497Z,3.57
2022-12-17T19:28:42.273Z,2.90
2022-12-17T19:32:45.400Z,4.03
2022-12-17T19:36:50.125Z,4.03
2022-12-17T19:40:53.458Z,2.27
2022-12-17T19:44:58.040Z,5.63
2022-12-17T19:49:01.832Z,4.80
2022-12-17T19:53:06.579Z,2.67
2022-12-17T19:57:09.839Z,2.67
2022-12-17T20:01:16.172Z,3.80
2022-12-17T20:05:19.610Z,4.30
2022-12-17T20:09:24.439Z,2.67
2022-12-17T20:13:27.559Z,2.00
2022-12-17T20:17:30.778Z,2.63
2022-12-17T20:21:34.852Z,2.37
2022-12-17T20:25:39.383Z,3.10
2022-12-17T20:29:42.540Z,3.43
2022-12-17T20:33:45.868Z,2.70
2022-12-17T20:37:49.159Z,2.50
2022-12-17T20:41:53.703Z,3.73
2022-12-17T20:45:57.014Z,6.83
2022-12-17T20:50:00.223Z,1.97
2022-12-17T20:54:04.431Z,3.03
2022-12-17T20:58:09.034Z,2.50
2022-12-17T21:02:12.272Z,1.80
2022-12-17T21:06:18.770Z,2.87
2022-12-17T21:10:22.085Z,2.23
2022-12-17T21:14:31.984Z,2.80
2022-12-17T21:18:39.117Z,5.33
2022-12-17T21:22:42.946Z,2.93
2022-12-17T21:26:47.157Z,2.33
2022-12-17T21:30:51.753Z,2.70
2022-12-17T21:34:55.236Z,3.17
2022-12-17T21:38:59.463Z,2.70
2022-12-17T21:43:02.652Z,3.00
2022-12-17T21:47:07.379Z,2.93
2022-12-17T21:51:13.139Z,2.37
2022-12-17T21:55:16.904Z,2.10
2022-12-17T21:59:20.075Z,3.80
2022-12-17T22:03:24.768Z,3.23
2022-12-17T22:07:29.233Z,4.87
2022-12-17T22:11:37.268Z,2.87
2022-12-17T22:15:47.503Z,2.30
2022-12-17T22:19:53.014Z,1.90
2022-12-17T22:23:56.214Z,1.17
2022-12-17T22:28:00.450Z,2.97
2022-12-17T22:32:21.501Z,2.97
2022-12-17T22:38:27.887Z,3.13
2022-12-17T22:44:30.355Z,1.97
2022-12-17T22:45:16.062Z,1.57
2022-12-17T22:49:20.510Z,3.83
2022-12-17T22:53:26.355Z,2.53
2022-12-17T22:57:36.162Z,2.30
2022-12-17T23:01:40.499Z,2.63
2022-12-17T23:05:44.074Z,1.87
2022-12-17T23:09:51.052Z,1.47
2022-12-17T23:13:55.147Z,2.30
2022-12-17T23:18:00.659Z,3.30
2022-12-17T23:22:03.918Z,2.70
2022-12-17T23:26:09.912Z,3.23
2022-12-17T23:30:15.303Z,4.07
2022-12-17T23:34:18.686Z,2.40
2022-12-17T23:38:21.839Z,1.57
2022-12-17T23:42:27.410Z,2.13
2022-12-17T23:46:31.753Z,1.23
2022-12-17T23:50:35.172Z,3.03
2022-12-17T23:54:38.768Z,1.97
2022-12-17T23:58:44.917Z,1.80
